TimeEDT,TemperatureF,Dew PointF,Humidity,Sea Level PressureIn,VisibilityMPH,Wind Direction,Wind SpeedMPH,Gust SpeedMPH,PrecipitationIn,Events,Conditions,WindDirDegrees,DateUTC
12:53 AM,63.0,59.0,87,30.02,10.0,Calm,Calm,-,N/A,,Overcast,0,2012-10-15 04:53:00
1:02 AM,64.4,60.8,88,30.03,10.0,Calm,Calm,-,N/A,,Overcast,0,2012-10-15 05:02:00
1:38 AM,64.4,60.8,88,30.02,10.0,Calm,Calm,-,N/A,,Overcast,0,2012-10-15 05:38:00
1:49 AM,62.6,60.8,94,30.02,10.0,Calm,Calm,-,N/A,,Overcast,0,2012-10-15 05:49:00
1:53 AM,63.0,60.1,90,30.00,10.0,Calm,Calm,-,N/A,,Overcast,0,2012-10-15 05:53:00
2:22 AM,64.4,60.8,88,30.01,10.0,SSW,3.5,-,N/A,,Overcast,210,2012-10-15 06:22:00
2:31 AM,64.4,62.6,94,30.01,10.0,South,4.6,-,N/A,,Overcast,190,2012-10-15 06:31:00
2:42 AM,64.4,62.6,94,30.00,10.0,SSW,6.9,-,N/A,,Overcast,210,2012-10-15 06:42:00
2:53 AM,64.9,62.1,90,29.98,10.0,South,5.8,-,N/A,,Overcast,190,2012-10-15 06:53:00
3:12 AM,64.4,62.6,94,29.98,10.0,South,8.1,-,0.00,,Overcast,190,2012-10-15 07:12:00
3:53 AM,64.9,63.0,93,29.95,10.0,South,6.9,-,0.00,,Overcast,190,2012-10-15 07:53:00
4:53 AM,64.9,62.1,90,29.92,10.0,South,11.5,-,N/A,,Overcast,180,2012-10-15 08:53:00
5:03 AM,64.4,62.6,94,29.94,10.0,South,10.4,-,N/A,,Overcast,190,2012-10-15 09:03:00
5:24 AM,64.4,62.6,94,29.93,10.0,SSW,10.4,-,N/A,,Overcast,200,2012-10-15 09:24:00
5:53 AM,64.9,62.1,90,29.91,10.0,SSW,11.5,18.4,N/A,,Overcast,200,2012-10-15 09:53:00
6:53 AM,64.9,63.0,93,29.92,3.0,SSW,10.4,-,0.10,Rain,Heavy Rain,210,2012-10-15 10:53:00
6:57 AM,64.4,62.6,94,29.93,2.5,SSW,10.4,-,0.01,Rain-Thunderstorm,Rain,200,2012-10-15 10:57:00
7:06 AM,64.4,62.6,94,29.93,4.0,SSW,10.4,-,0.04,Rain-Thunderstorm,Light Thunderstorms and Rain,200,2012-10-15 11:06:00
7:19 AM,64.4,62.6,94,29.93,10.0,SSW,11.5,-,0.04,,Overcast,200,2012-10-15 11:19:00
7:53 AM,66.0,63.0,90,29.91,10.0,SSW,10.4,-,0.04,,Overcast,210,2012-10-15 11:53:00
8:53 AM,66.0,64.0,93,29.90,10.0,SW,6.9,-,N/A,,Overcast,220,2012-10-15 12:53:00
9:30 AM,66.2,64.4,94,29.92,10.0,SSW,10.4,-,N/A,,Overcast,210,2012-10-15 13:30:00
9:53 AM,66.9,64.0,90,29.91,10.0,SW,8.1,-,N/A,,Overcast,230,2012-10-15 13:53:00
10:40 AM,66.2,64.4,94,29.92,10.0,WSW,9.2,-,N/A,,Overcast,240,2012-10-15 14:40:00
10:48 AM,66.2,64.4,94,29.91,10.0,WSW,9.2,-,N/A,,Overcast,250,2012-10-15 14:48:00
10:53 AM,68.0,64.0,87,29.89,10.0,SW,9.2,-,N/A,,Overcast,230,2012-10-15 14:53:00
11:16 AM,68.0,64.4,88,29.90,10.0,WSW,9.2,-,N/A,,Overcast,250,2012-10-15 15:16:00
11:46 AM,69.8,62.6,78,29.90,10.0,SW,13.8,-,N/A,,Overcast,230,2012-10-15 15:46:00
11:53 AM,71.1,63.0,75,29.88,10.0,West,10.4,-,N/A,,Mostly Cloudy,260,2012-10-15 15:53:00
12:53 PM,75.0,60.1,60,29.84,10.0,WSW,12.7,-,N/A,,Partly Cloudy,240,2012-10-15 16:53:00
1:53 PM,77.0,57.0,50,29.81,10.0,West,11.5,20.7,N/A,,Scattered Clouds,260,2012-10-15 17:53:00
2:53 PM,75.9,55.0,48,29.80,10.0,West,9.2,19.6,N/A,,Mostly Cloudy,260,2012-10-15 18:53:00
3:53 PM,78.1,43.0,29,29.79,10.0,WNW,12.7,-,N/A,,Clear,300,2012-10-15 19:53:00
4:53 PM,77.0,39.0,25,29.80,10.0,West,17.3,24.2,N/A,,Clear,270,2012-10-15 20:53:00
5:53 PM,73.9,39.9,29,29.81,10.0,West,11.5,16.1,N/A,,Clear,280,2012-10-15 21:53:00
6:53 PM,69.1,39.0,33,29.83,10.0,WNW,6.9,-,N/A,,Clear,290,2012-10-15 22:53:00
7:53 PM,66.0,42.1,42,29.85,10.0,NW,5.8,-,N/A,,Clear,320,2012-10-15 23:53:00
8:53 PM,63.0,41.0,45,29.87,10.0,WNW,3.5,-,N/A,,Clear,300,2012-10-16 00:53:00
9:53 PM,61.0,42.1,50,29.89,10.0,Calm,Calm,-,N/A,,Clear,0,2012-10-16 01:53:00
10:53 PM,59.0,43.0,55,29.90,10.0,North,5.8,-,N/A,,Clear,360,2012-10-16 02:53:00
11:53 PM,57.9,43.0,58,29.91,10.0,NW,3.5,-,N/A,,Clear,320,2012-10-16 03:53:00